Time;durP1;ratioP1;P1;durP2;ratioP2;P2;SDS_P1;SDS_P2;PMS_P1;PMS_P2;Temp;Humidity;BMP_temperature;BMP_pressure;BME280_temperature;BME280_humidity;BME280_pressure;Samples;Min_cycle;Max_cycle;Signal;HPM_P1;HPM_P2
2023/04/21 00:00:11;;;;;;;29.27;19.20;;;;;;;14.63;82.36;100821.44;4982007;28;20042;-80
2023/04/21 00:02:38;;;;;;;35.25;20.02;;;;;;;15.13;82.66;100897.44;4995061;28;20045;-80
2023/04/21 00:05:14;;;;;;;24.83;18.15;;;;;;;15.00;81.82;100865.78;4983055;28;20049;-79
2023/04/21 00:07:44;;;;;;;31.73;19.92;;;;;;;15.17;82.49;100896.97;4987314;28;20049;-80
2023/04/21 00:10:14;;;;;;;30.30;19.58;;;;;;;15.28;81.63;100897.66;5001965;28;20101;-81
2023/04/21 00:12:41;;;;;;;32.30;19.40;;;;;;;14.89;81.75;100839.31;4985908;28;20068;-81
2023/04/21 00:15:11;;;;;;;29.40;18.50;;;;;;;15.06;82.32;100865.13;4991233;28;20100;-80
2023/04/21 00:17:45;;;;;;;28.42;20.10;;;;;;;15.14;81.75;100873.19;4980669;28;20103;-81
2023/04/21 00:20:20;;;;;;;30.90;21.27;;;;;;;15.26;81.62;100883.63;4987402;28;20133;-81
2023/04/21 00:22:51;;;;;;;26.42;18.75;;;;;;;15.27;81.73;100890.66;5001232;28;20058;-81
2023/04/21 00:25:18;;;;;;;33.17;20.40;;;;;;;15.17;81.94;100872.06;4982650;28;20419;-81
2023/04/21 00:27:47;;;;;;;28.48;18.73;;;;;;;15.25;81.64;100890.81;4984857;28;20053;-82
2023/04/21 00:30:14;;;;;;;30.77;20.88;;;;;;;15.20;81.97;100887.78;4985769;28;20513;-80
2023/04/21 00:32:52;;;;;;;29.80;20.38;;;;;;;15.05;82.20;100865.28;4982158;28;20388;-80
2023/04/21 00:35:23;;;;;;;30.02;20.73;;;;;;;15.20;82.21;100889.63;4984782;28;20408;-81
2023/04/21 00:37:56;;;;;;;27.85;19.42;;;;;;;15.18;82.49;100889.75;4984498;28;20176;-82
2023/04/21 00:40:30;;;;;;;31.35;19.05;;;;;;;15.25;81.61;100879.28;4999785;28;20483;-81
2023/04/21 00:43:09;;;;;;;31.65;19.98;;;;;;;15.06;82.13;100859.78;4983412;28;20140;-81
2023/04/21 00:45:36;;;;;;;34.10;20.27;;;;;;;14.90;82.38;100841.84;4982482;28;20166;-81
2023/04/21 00:48:11;;;;;;;37.70;21.13;;;;;;;15.16;82.59;100881.88;4985384;28;20049;-79
2023/04/21 00:50:49;;;;;;;33.75;19.05;;;;;;;15.10;82.97;100877.19;4984447;28;20042;-82
2023/04/21 00:53:19;;;;;;;34.40;20.48;;;;;;;14.23;83.02;100739.22;4981232;28;20093;-81
2023/04/21 00:55:46;;;;;;;33.75;20.95;;;;;;;15.02;83.64;100863.75;4985766;28;20137;-81
2023/04/21 00:58:12;;;;;;;30.10;20.63;;;;;;;14.50;82.25;100741.69;4983196;28;20190;-81
2023/04/21 01:00:39;;;;;;;25.98;19.15;;;;;;;15.14;82.69;100873.19;4984307;28;20377;-81
2023/04/21 01:03:13;;;;;;;32.63;19.95;;;;;;;15.04;82.86;100856.44;4983190;28;20326;-82
2023/04/21 01:05:58;;;;;;;29.42;20.02;;;;;;;14.99;83.25;100863.25;4997976;28;20054;-80
2023/04/21 01:08:27;;;;;;;31.75;19.65;;;;;;;14.96;83.01;100864.41;5001341;28;20342;-82
2023/04/21 01:10:53;;;;;;;31.88;20.77;;;;;;;14.87;83.26;100843.97;4984620;28;20049;-80
2023/04/21 01:13:32;;;;;;;36.17;21.85;;;;;;;14.85;83.26;100835.28;4968540;28;20300;-80
2023/04/21 01:15:59;;;;;;;38.97;23.75;;;;;;;15.05;83.28;100873.31;4984208;28;20057;-79
2023/04/21 01:18:25;;;;;;;34.25;22.73;;;;;;;14.93;83.06;100854.88;4996593;28;20049;-82
2023/04/21 01:20:52;;;;;;;34.90;21.65;;;;;;;14.83;83.22;100831.91;4993190;28;20054;-80
2023/04/21 01:23:33;;;;;;;30.98;21.55;;;;;;;14.84;83.09;100833.63;4980382;28;20192;-81
2023/04/21 01:26:16;;;;;;;31.38;22.50;;;;;;;15.06;83.10;100877.66;4996749;28;20423;-80
2023/04/21 01:28:42;;;;;;;33.40;21.38;;;;;;;15.03;83.31;100881.50;5004202;28;20085;-83
2023/04/21 01:31:12;;;;;;;34.63;22.80;;;;;;;15.07;83.32;100877.53;4990962;28;20045;-82
2023/04/21 01:33:39;;;;;;;31.63;22.40;;;;;;;14.96;82.79;100856.41;4989796;28;20534;-82
2023/04/21 01:36:06;;;;;;;30.85;21.00;;;;;;;15.06;82.50;100885.69;4992024;28;20568;-81
2023/04/21 01:38:40;;;;;;;32.97;22.38;;;;;;;15.00;82.57;100887.19;4993395;28;20050;-80
2023/04/21 01:41:09;;;;;;;33.72;21.63;;;;;;;14.82;82.92;100855.13;4992967;28;20054;-82
2023/04/21 01:43:41;;;;;;;37.85;23.42;;;;;;;14.93;82.58;100872.75;4987190;28;20054;-81
2023/04/21 01:46:19;;;;;;;34.65;23.67;;;;;;;14.90;82.84;100875.72;5008596;28;20056;-82
2023/04/21 01:49:00;;;;;;;35.38;21.23;;;;;;;14.92;82.72;100881.75;4985938;28;20061;-81
2023/04/21 01:51:35;;;;;;;36.53;22.58;;;;;;;14.96;83.08;100883.13;4990096;28;20258;-80
2023/04/21 01:54:02;;;;;;;31.85;21.33;;;;;;;14.95;82.50;100881.44;5003649;28;20566;-80
2023/04/21 01:56:29;;;;;;;39.28;22.08;;;;;;;14.94;82.41;100872.59;5006431;28;20045;-81
2023/04/21 01:58:55;;;;;;;34.83;21.45;;;;;;;14.95;82.30;100884.97;4982420;28;20046;-81
2023/04/21 02:01:22;;;;;;;34.78;21.88;;;;;;;14.93;82.47;100880.78;4986382;28;20158;-83
2023/04/21 02:03:55;;;;;;;39.25;20.58;;;;;;;14.90;82.08;100876.59;4979272;28;20057;-82
2023/04/21 02:06:31;;;;;;;34.17;21.88;;;;;;;14.71;82.19;100840.22;4979920;28;20055;-81
2023/04/21 02:08:58;;;;;;;33.05;20.80;;;;;;;14.78;82.39;100858.28;4982589;28;20469;-82
2023/04/21 02:11:43;;;;;;;33.55;23.45;;;;;;;14.62;82.06;100838.50;4988882;28;20504;-81
2023/04/21 02:14:13;;;;;;;33.50;21.42;;;;;;;14.96;82.57;100891.16;4966387;28;20391;-80
2023/04/21 02:16:39;;;;;;;30.48;21.00;;;;;;;14.80;82.11;100869.66;4970248;28;20112;-80
2023/04/21 02:19:07;;;;;;;33.70;21.92;;;;;;;14.97;82.76;100895.50;4971273;28;20051;-83
2023/04/21 02:21:36;;;;;;;35.33;21.40;;;;;;;14.88;82.85;100888.41;4969078;28;20047;-80
2023/04/21 02:24:03;;;;;;;34.67;22.65;;;;;;;14.74;82.79;100866.63;4971003;28;20382;-81
2023/04/21 02:26:45;;;;;;;37.83;23.23;;;;;;;14.75;83.43;100868.28;4984522;28;20097;-81
2023/04/21 02:29:15;;;;;;;36.90;23.58;;;;;;;14.84;83.91;100890.56;4971080;28;20334;-82
2023/04/21 02:31:42;;;;;;;35.95;23.73;;;;;;;14.89;83.60;100892.78;4969689;28;20125;-82
2023/04/21 02:34:26;;;;;;;34.75;23.48;;;;;;;14.73;83.65;100864.09;4983888;28;20124;-81
2023/04/21 02:36:54;;;;;;;34.92;23.02;;;;;;;14.81;84.14;100882.03;4986564;28;20588;-81
2023/04/21 02:39:21;;;;;;;39.20;23.48;;;;;;;14.78;83.95;100887.69;4976753;28;20056;-82
2023/04/21 02:42:11;;;;;;;36.45;23.52;;;;;;;14.71;84.70;100877.63;4986045;28;20046;-82
2023/04/21 02:44:38;;;;;;;38.00;24.48;;;;;;;14.77;85.11;100888.69;5005690;28;20153;-83
2023/04/21 02:47:10;;;;;;;38.88;23.25;;;;;;;14.66;85.01;100863.91;4987223;28;20172;-80
2023/04/21 02:49:41;;;;;;;37.90;24.23;;;;;;;14.59;84.92;100864.66;4991535;28;20142;-80
2023/04/21 02:52:08;;;;;;;34.97;24.08;;;;;;;14.58;85.03;100871.84;4982939;28;20077;-81
2023/04/21 02:54:36;;;;;;;37.05;23.85;;;;;;;14.42;85.15;100843.16;4977005;28;20097;-80
2023/04/21 02:57:03;;;;;;;35.22;22.90;;;;;;;14.63;83.99;100874.88;4984425;28;20240;-83
2023/04/21 02:59:33;;;;;;;37.33;22.13;;;;;;;14.52;84.05;100851.91;4979846;28;20046;-82
2023/04/21 03:02:02;;;;;;;32.13;22.33;;;;;;;14.78;83.92;100893.03;4992939;28;20045;-82
2023/04/21 03:04:31;;;;;;;34.10;21.33;;;;;;;14.81;82.88;100893.56;4982198;28;20073;-81
2023/04/21 03:07:02;;;;;;;31.42;21.92;;;;;;;14.71;83.03;100888.31;4972129;28;20331;-82
2023/04/21 03:09:33;;;;;;;28.15;20.95;;;;;;;14.68;82.89;100904.66;4985470;28;20046;-82
2023/04/21 03:12:02;;;;;;;29.60;21.70;;;;;;;14.35;83.87;100854.63;4992515;28;20281;-83
2023/04/21 03:14:28;;;;;;;34.03;21.45;;;;;;;14.53;83.97;100891.00;4961427;28;20046;-82
2023/04/21 03:16:55;;;;;;;31.90;21.02;;;;;;;13.58;83.93;100728.84;4959174;28;20054;-83
2023/04/21 03:19:22;;;;;;;30.80;21.23;;;;;;;14.35;84.01;100860.81;4956148;28;20091;-81
2023/04/21 03:21:49;;;;;;;32.80;21.80;;;;;;;14.51;85.22;100908.16;4975967;28;20054;-82
2023/04/21 03:24:16;;;;;;;33.72;23.17;;;;;;;14.36;85.58;100891.84;4965824;28;20116;-82
2023/04/21 03:26:42;;;;;;;30.52;20.88;;;;;;;14.51;84.93;100909.03;4957170;28;20054;-80
2023/04/21 03:29:09;;;;;;;32.97;20.85;;;;;;;14.17;84.98;100858.13;4975135;28;20342;-82
2023/04/21 03:31:48;;;;;;;32.95;21.27;;;;;;;14.32;84.95;100891.31;4974685;28;20058;-81
2023/04/21 03:34:17;;;;;;;29.25;20.83;;;;;;;14.44;84.59;100897.28;4982783;28;20132;-83
2023/04/21 03:36:44;;;;;;;30.08;21.70;;;;;;;14.52;84.62;100915.19;5000941;28;20488;-83
2023/04/21 03:39:14;;;;;;;31.27;22.27;;;;;;;14.49;84.95;100915.47;4997378;28;20185;-84
2023/04/21 03:41:49;;;;;;;33.28;22.20;;;;;;;14.21;85.64;100872.84;4985577;28;20137;-83
2023/04/21 03:44:18;;;;;;;29.98;21.40;;;;;;;14.33;85.14;100895.66;5002033;28;20994;-84
2023/04/21 03:46:45;;;;;;;28.98;21.58;;;;;;;14.39;85.06;100909.38;4981052;28;20087;-83
2023/04/21 03:49:14;;;;;;;28.88;21.65;;;;;;;14.41;85.42;100910.09;4980692;28;20062;-85
2023/04/21 03:51:43;;;;;;;32.55;22.20;;;;;;;14.32;85.38;100915.38;4985315;28;20104;-84
2023/04/21 03:54:27;;;;;;;30.80;21.30;;;;;;;13.74;85.97;100817.06;4983269;28;20091;-84
2023/04/21 03:56:54;;;;;;;29.98;21.45;;;;;;;14.15;86.10;100888.66;4982184;28;20058;-86
2023/04/21 03:59:20;;;;;;;39.92;22.15;;;;;;;14.22;85.07;100903.91;4987502;28;20341;-83
2023/04/21 04:01:51;;;;;;;38.55;22.15;;;;;;;14.05;85.23;100878.03;4981768;28;20425;-84
2023/04/21 04:04:20;;;;;;;30.38;21.25;;;;;;;14.15;85.65;100896.66;4987100;28;20053;-82
2023/04/21 04:06:51;;;;;;;30.65;21.60;;;;;;;14.35;85.27;100930.25;4995659;28;20329;-83
2023/04/21 04:09:19;;;;;;;30.15;21.83;;;;;;;14.15;84.90;100891.31;4986091;28;20060;-84
2023/04/21 04:11:46;;;;;;;28.60;21.58;;;;;;;14.22;84.87;100913.75;4981734;28;20565;-84
2023/04/21 04:14:12;;;;;;;33.28;23.13;;;;;;;14.21;84.29;100910.25;4972257;28;20050;-84
2023/04/21 04:16:42;;;;;;;33.10;22.45;;;;;;;14.31;84.72;100931.53;4978085;28;20053;-84
2023/04/21 04:19:10;;;;;;;32.72;21.92;;;;;;;13.89;84.65;100860.88;4967376;28;20046;-83
2023/04/21 04:21:41;;;;;;;28.48;21.80;;;;;;;14.15;85.24;100907.34;4964900;28;20378;-83
2023/04/21 04:24:09;;;;;;;34.00;21.70;;;;;;;14.28;85.15;100930.00;4977495;28;20302;-82
2023/04/21 04:26:48;;;;;;;30.20;21.80;;;;;;;14.05;85.11;100886.06;4987280;28;20108;-86
2023/04/21 04:29:16;;;;;;;34.05;22.23;;;;;;;14.35;84.71;100934.75;4974040;28;20486;-84
2023/04/21 04:31:43;;;;;;;28.90;21.85;;;;;;;14.07;84.29;100900.09;4997953;28;20116;-84
2023/04/21 04:34:10;;;;;;;27.58;21.98;;;;;;;14.02;84.66;100886.38;4994081;28;20042;-85
2023/04/21 04:36:36;;;;;;;34.65;22.13;;;;;;;14.24;84.71;100931.28;4983944;28;20103;-83
2023/04/21 04:39:07;;;;;;;33.03;22.05;;;;;;;13.66;85.21;100840.97;4981864;28;20381;-83
2023/04/21 04:41:36;;;;;;;32.88;21.00;;;;;;;14.08;85.03;100912.47;4980054;28;20061;-83
2023/04/21 04:44:06;;;;;;;30.42;22.30;;;;;;;14.17;84.71;100929.38;4980151;28;20621;-83
2023/04/21 04:46:33;;;;;;;29.67;20.45;;;;;;;14.29;84.96;100961.03;4981941;28;20061;-83
2023/04/21 04:49:00;;;;;;;34.35;22.33;;;;;;;14.26;84.95;100953.34;4974111;28;20472;-82
2023/04/21 04:51:27;;;;;;;39.38;22.52;;;;;;;14.24;85.28;100955.31;4981364;28;20087;-80
2023/04/21 04:54:09;;;;;;;34.67;22.50;;;;;;;14.23;85.73;100951.00;4980334;28;20197;-83
2023/04/21 04:56:36;;;;;;;;;;;;;;;14.21;85.61;100955.63;4980332;28;20571;-82
2023/04/21 04:59:06;;;;;;;30.88;20.48;;;;;;;13.99;85.66;100919.53;4981857;28;20000;-83
2023/04/21 05:01:37;;;;;;;33.63;23.27;;;;;;;14.11;86.01;100944.19;4973482;28;20089;-82
2023/04/21 05:04:03;;;;;;;36.85;22.58;;;;;;;14.25;85.79;100978.38;4984721;28;20584;-84
2023/04/21 05:06:31;;;;;;;33.75;22.45;;;;;;;14.00;86.00;100931.03;4993553;28;20683;-82
2023/04/21 05:09:00;;;;;;;36.17;21.98;;;;;;;14.25;86.01;100975.72;4982321;28;20057;-83
2023/04/21 05:11:27;;;;;;;34.35;23.10;;;;;;;14.14;85.84;100962.56;4903580;28;20062;-82
2023/04/21 05:13:55;;;;;;;29.80;22.00;;;;;;;14.06;85.63;100946.47;4978054;28;20161;-81
2023/04/21 05:16:43;;;;;;;;;;;;;;;;;;;;;
2023/04/21 05:19:19;;;;;;;34.42;23.13;;;;;;;13.41;85.02;100835.34;4963726;28;20054;-83
2023/04/21 05:21:46;;;;;;;36.63;23.08;;;;;;;14.25;85.11;100973.03;4960671;28;20104;-81
2023/04/21 05:24:22;;;;;;;39.33;23.45;;;;;;;14.07;84.52;100948.97;4971149;28;20381;-83
2023/04/21 05:26:49;;;;;;;35.97;24.65;;;;;;;14.32;84.24;100987.47;4970958;28;20120;-82
2023/04/21 05:29:27;;;;;;;35.08;22.75;;;;;;;14.27;83.89;100989.75;4974570;28;20432;-82
2023/04/21 05:31:54;;;;;;;36.97;22.70;;;;;;;14.22;84.37;100988.50;4977433;28;20054;-84
2023/04/21 05:34:27;;;;;;;33.85;23.35;;;;;;;14.26;84.90;100990.72;4981138;28;20048;-81
2023/04/21 05:36:55;;;;;;;42.47;24.73;;;;;;;13.28;84.80;100828.69;4993780;28;20049;-82
2023/04/21 05:39:22;;;;;;;35.42;24.77;;;;;;;13.96;84.49;100945.72;4976696;28;20085;-80
2023/04/21 05:41:49;;;;;;;35.88;23.42;;;;;;;14.27;84.04;100992.44;4975888;28;20418;-80
2023/04/21 05:44:18;;;;;;;38.22;24.38;;;;;;;14.28;84.65;100996.75;4983649;28;20411;-82
2023/04/21 05:46:48;;;;;;;38.35;23.70;;;;;;;14.32;83.39;100994.63;4979827;28;20397;-82
2023/04/21 05:49:16;;;;;;;30.48;22.60;;;;;;;14.29;82.35;100981.56;4982002;28;20062;-81
2023/04/21 05:51:43;;;;;;;36.05;22.80;;;;;;;14.40;82.76;100994.72;4980807;28;20239;-81
2023/04/21 05:54:15;;;;;;;35.40;22.05;;;;;;;14.30;82.26;100991.28;4979231;28;20058;-80
2023/04/21 05:56:50;;;;;;;35.15;22.77;;;;;;;14.10;83.15;100971.84;4984690;28;20448;-81
2023/04/21 05:59:17;;;;;;;33.42;22.83;;;;;;;14.23;83.47;101001.72;4978605;28;20060;-81
2023/04/21 06:01:44;;;;;;;34.85;23.67;;;;;;;14.26;83.33;100998.75;4980286;28;20270;-82
2023/04/21 06:04:21;;;;;;;35.78;22.92;;;;;;;14.07;82.89;100965.00;4984989;28;20147;-80
2023/04/21 06:06:55;;;;;;;34.33;23.20;;;;;;;14.17;81.99;100980.94;4985577;28;20064;-80
2023/04/21 06:09:23;;;;;;;38.40;23.85;;;;;;;14.31;82.86;101012.47;4964244;28;20056;-80
2023/04/21 06:11:49;;;;;;;35.67;22.88;;;;;;;13.74;82.93;100910.44;4978760;28;20484;-80
2023/04/21 06:14:24;;;;;;;42.17;24.65;;;;;;;13.89;82.42;100942.78;4988515;28;20374;-80
2023/04/21 06:16:53;;;;;;;37.55;23.23;;;;;;;14.06;82.81;100973.16;4980149;28;20056;-80
2023/04/21 06:19:20;;;;;;;39.85;23.85;;;;;;;14.16;83.60;100989.13;4984683;28;20476;-80
2023/04/21 06:21:46;;;;;;;33.65;23.42;;;;;;;14.32;83.56;101018.66;4985495;28;20291;-79
2023/04/21 06:24:26;;;;;;;37.65;24.10;;;;;;;14.00;82.59;100968.41;4962715;28;20047;-78
2023/04/21 06:26:55;;;;;;;42.63;23.40;;;;;;;14.30;83.00;101007.31;4964055;28;20125;-81
2023/04/21 06:29:31;;;;;;;37.80;24.17;;;;;;;13.79;82.60;100920.66;4979716;28;20066;-81
2023/04/21 06:31:58;;;;;;;37.53;23.95;;;;;;;14.31;82.62;101012.47;4973273;28;20455;-80
2023/04/21 06:34:24;;;;;;;35.80;22.50;;;;;;;14.41;82.86;101024.94;4997480;28;20448;-79
2023/04/21 06:36:58;;;;;;;36.75;23.42;;;;;;;14.33;83.82;101018.50;5003145;28;20144;-80
2023/04/21 06:39:25;;;;;;;36.53;23.27;;;;;;;14.45;83.13;101026.31;4979020;28;20046;-80
2023/04/21 06:41:52;;;;;;;37.85;23.60;;;;;;;14.45;82.79;101031.66;4986868;28;20042;-80
2023/04/21 06:44:19;;;;;;;36.60;23.15;;;;;;;14.39;83.11;101019.72;4991964;28;20454;-79
2023/04/21 06:46:55;;;;;;;37.88;23.83;;;;;;;14.00;83.75;100960.41;5001962;28;20506;-79
2023/04/21 06:49:24;;;;;;;36.63;23.15;;;;;;;14.44;82.59;101022.81;4982698;28;20212;-81
2023/04/21 06:51:50;;;;;;;43.08;25.08;;;;;;;14.43;82.45;101009.59;4984001;28;20050;-81
2023/04/21 06:54:18;;;;;;;37.78;24.88;;;;;;;14.53;82.10;101027.25;4977222;28;20639;-80
2023/04/21 06:56:45;;;;;;;41.42;24.05;;;;;;;14.51;82.48;101020.34;4983144;28;20065;-80
2023/04/21 06:59:12;;;;;;;39.05;24.90;;;;;;;14.51;82.41;101028.38;4984901;28;20372;-80
2023/04/21 07:01:38;;;;;;;41.13;24.50;;;;;;;14.52;82.33;101035.41;4978955;28;20147;-80
2023/04/21 07:04:06;;;;;;;36.83;23.98;;;;;;;14.38;82.20;101006.56;4984123;28;20057;-81
2023/04/21 07:06:32;;;;;;;39.72;25.30;;;;;;;14.51;82.55;101031.91;4982100;28;20144;-81
2023/04/21 07:08:59;;;;;;;38.88;24.92;;;;;;;14.33;83.06;100997.16;4984506;28;20137;-82
2023/04/21 07:11:29;;;;;;;39.17;24.50;;;;;;;14.55;82.92;101031.63;4977609;28;20153;-80
2023/04/21 07:13:56;;;;;;;44.90;26.25;;;;;;;14.35;83.44;101005.03;4964461;28;20511;-80
2023/04/21 07:16:23;;;;;;;44.75;26.08;;;;;;;14.29;83.29;100982.41;4969196;28;20105;-78
2023/04/21 07:18:50;;;;;;;39.70;24.90;;;;;;;14.62;82.35;101038.03;4991669;28;20057;-79
2023/04/21 07:21:16;;;;;;;42.13;24.98;;;;;;;14.56;82.23;101014.59;5000352;28;20373;-81
2023/04/21 07:23:43;;;;;;;42.17;25.90;;;;;;;14.72;82.82;101036.13;4984927;28;20357;-80
2023/04/21 07:26:09;;;;;;;38.47;24.65;;;;;;;14.33;82.87;100973.13;4998827;28;20152;-80
2023/04/21 07:28:37;;;;;;;35.58;23.00;;;;;;;14.63;82.24;101027.19;4996438;28;20046;-79
2023/04/21 07:31:04;;;;;;;38.83;23.80;;;;;;;14.84;82.48;101052.78;4974399;28;20116;-81
2023/04/21 07:33:31;;;;;;;34.28;23.15;;;;;;;14.72;81.68;101007.56;4988552;28;20062;-78
2023/04/21 07:35:58;;;;;;;34.40;23.67;;;;;;;14.97;80.89;101045.19;5010098;28;20057;-82
2023/04/21 07:38:25;;;;;;;33.72;22.58;;;;;;;15.02;81.58;101050.91;4990193;28;20046;-79
2023/04/21 07:40:56;;;;;;;35.53;23.05;;;;;;;15.12;80.97;101057.03;4986479;28;20171;-81
2023/04/21 07:43:26;;;;;;;38.38;24.15;;;;;;;14.83;80.94;100987.78;4991447;28;20064;-79
2023/04/21 07:45:58;;;;;;;37.95;23.13;;;;;;;15.00;79.92;101015.50;4985040;28;20091;-80
2023/04/21 07:48:27;;;;;;;;;;;;;;;15.25;80.65;101055.78;4992431;28;20247;-80
2023/04/21 07:50:54;;;;;;;35.28;21.30;;;;;;;15.21;79.79;101033.03;4986995;28;19929;-81
2023/04/21 07:53:24;;;;;;;34.67;21.58;;;;;;;15.26;78.74;101033.38;4988490;28;20056;-81
2023/04/21 07:55:50;;;;;;;31.92;21.90;;;;;;;15.48;77.87;101064.97;4988212;28;20133;-79
2023/04/21 07:58:21;;;;;;;35.30;23.50;;;;;;;15.34;78.35;101055.69;4984641;28;20062;-83
2023/04/21 08:00:54;;;;;;;34.85;24.15;;;;;;;15.26;79.13;101044.09;4982467;28;20445;-80
2023/04/21 08:03:20;;;;;;;37.10;24.63;;;;;;;15.35;79.27;101059.22;4984958;28;20581;-80
2023/04/21 08:05:50;;;;;;;41.88;24.40;;;;;;;15.14;79.30;101024.78;5008324;28;20073;-79
2023/04/21 08:08:32;;;;;;;38.55;24.55;;;;;;;15.31;79.17;101050.63;5001225;28;20116;-79
2023/04/21 08:11:10;;;;;;;42.10;25.98;;;;;;;15.41;79.21;101071.09;4995858;28;20113;-80
2023/04/21 08:13:37;;;;;;;34.47;25.15;;;;;;;15.45;78.35;101067.13;4979749;28;20046;-79
2023/04/21 08:16:10;;;;;;;36.33;25.23;;;;;;;15.28;77.91;101047.44;4979587;28;20307;-79
2023/04/21 08:18:38;;;;;;;36.38;23.83;;;;;;;14.97;78.42;100994.41;4956516;28;20046;-80
2023/04/21 08:24:11;;;;;;;40.83;24.00;;;;;;;15.48;78.89;101083.69;4959561;28;20467;-80
2023/04/21 08:26:52;;;;;;;45.42;24.05;;;;;;;15.43;78.06;101059.25;4977971;28;20459;-81
2023/04/21 08:29:18;;;;;;;37.35;24.60;;;;;;;15.43;77.26;101059.25;4981940;28;20160;-81
2023/04/21 08:31:45;;;;;;;36.90;24.20;;;;;;;15.59;77.67;101080.78;4973800;28;20440;-82
2023/04/21 08:34:12;;;;;;;32.80;23.08;;;;;;;15.36;77.32;101048.38;4966638;28;20058;-80
2023/04/21 08:36:49;;;;;;;37.72;25.27;;;;;;;15.64;77.92;101090.19;4963716;28;20042;-80
2023/04/21 08:39:16;;;;;;;34.15;22.55;;;;;;;15.58;77.71;101072.88;4967583;28;20082;-81
2023/04/21 08:41:43;;;;;;;38.35;24.80;;;;;;;15.69;78.12;101079.84;4972369;28;20104;-79
2023/04/21 08:44:10;;;;;;;36.42;24.20;;;;;;;15.47;77.28;101055.28;4967423;28;20060;-79
2023/04/21 08:46:44;;;;;;;34.95;24.38;;;;;;;15.50;78.12;101044.25;4970616;28;20050;-81
2023/04/21 08:49:29;;;;;;;38.22;25.95;;;;;;;15.08;77.38;100966.59;4983404;28;20136;-79
2023/04/21 08:51:59;;;;;;;34.08;24.90;;;;;;;15.82;76.95;101082.94;4988929;28;20069;-80
2023/04/21 08:54:42;;;;;;;41.67;23.88;;;;;;;15.88;76.99;101078.81;4991599;28;20701;-80
2023/04/21 08:57:13;;;;;;;37.80;24.60;;;;;;;15.87;76.80;101072.59;4990702;28;20285;-79
2023/04/21 08:59:47;;;;;;;34.53;23.85;;;;;;;15.93;76.09;101076.47;4987003;28;20042;-79
2023/04/21 09:02:17;;;;;;;36.47;24.38;;;;;;;15.79;75.73;101067.19;4986217;28;20071;-80
2023/04/21 09:04:50;;;;;;;33.05;23.80;;;;;;;15.58;75.59;101033.63;5000048;28;20702;-80
2023/04/21 09:07:34;;;;;;;39.70;25.23;;;;;;;15.49;75.54;101013.16;4980520;28;20072;-81
2023/04/21 09:10:03;;;;;;;38.13;25.23;;;;;;;15.96;76.39;101082.34;4974490;28;20104;-79
2023/04/21 09:12:31;;;;;;;38.83;25.52;;;;;;;16.14;76.02;101086.78;5003974;28;20068;-79
2023/04/21 09:15:04;;;;;;;35.58;23.85;;;;;;;15.99;75.88;101060.59;5000332;28;20054;-80
2023/04/21 09:17:38;;;;;;;35.47;25.17;;;;;;;16.23;75.37;101083.13;4984538;28;20337;-79
2023/04/21 09:20:20;;;;;;;34.20;24.13;;;;;;;16.40;75.38;101094.75;4971319;28;20077;-79
2023/04/21 09:23:04;;;;;;;35.92;23.48;;;;;;;16.51;73.17;101096.31;4987994;28;20053;-80
2023/04/21 09:25:39;;;;;;;32.92;24.88;;;;;;;16.56;73.35;101091.28;4990494;28;20133;-82
2023/04/21 09:28:11;;;;;;;38.83;23.90;;;;;;;16.47;73.86;101062.78;4970083;28;20336;-80
2023/04/21 09:30:39;;;;;;;31.98;22.92;;;;;;;16.68;73.40;101076.56;4969339;28;20105;-80
2023/04/21 09:33:05;;;;;;;28.60;22.20;;;;;;;16.62;71.98;101047.72;4982968;28;20070;-79
2023/04/21 09:36:00;;;;;;;30.13;21.73;;;;;;;16.62;69.19;101027.13;5006121;28;20560;-78
2023/04/21 09:38:29;;;;;;;34.38;23.27;;;;;;;17.21;70.07;101086.03;5007464;28;20050;-81
2023/04/21 09:40:57;;;;;;;33.30;23.33;;;;;;;17.42;69.11;101090.03;5005442;28;20045;-82
2023/04/21 09:43:24;;;;;;;37.33;23.27;;;;;;;17.34;68.17;101082.00;4998870;28;20439;-81
2023/04/21 09:45:55;;;;;;;29.42;21.00;;;;;;;17.37;67.61;101085.16;4982713;28;20053;-80
2023/04/21 09:48:30;;;;;;;30.42;22.75;;;;;;;17.12;67.37;101052.16;5002218;28;20297;-80
2023/04/21 09:51:00;;;;;;;31.45;22.90;;;;;;;17.40;67.68;101094.72;5007100;28;20074;-81
2023/04/21 09:53:58;;;;;;;25.38;20.05;;;;;;;17.33;68.36;101064.22;5010154;28;20042;-80
2023/04/21 09:56:32;;;;;;;27.40;20.92;;;;;;;17.14;67.61;101034.06;4994030;28;20092;-80
2023/04/21 09:59:01;;;;;;;27.13;20.48;;;;;;;17.57;68.21;101099.06;4996008;28;20108;-81
2023/04/21 10:01:31;;;;;;;27.17;20.30;;;;;;;17.58;67.71;101083.81;4983461;28;20061;-82
2023/04/21 10:03:59;;;;;;;31.05;21.63;;;;;;;17.57;67.03;101082.97;4989495;28;20541;-82
2023/04/21 10:06:30;;;;;;;28.13;20.52;;;;;;;17.48;66.79;101055.31;4986586;28;20104;-82
2023/04/21 10:08:58;;;;;;;27.63;20.60;;;;;;;17.73;65.88;101084.78;4991369;28;20607;-81
2023/04/21 10:11:25;;;;;;;26.67;21.23;;;;;;;17.70;66.24;101072.53;4990217;28;20120;-82
2023/04/21 10:14:03;;;;;;;25.75;20.27;;;;;;;17.59;66.58;101048.72;4985036;28;20053;-81
2023/04/21 10:16:36;;;;;;;26.02;19.77;;;;;;;17.79;65.89;101075.19;4987738;28;20330;-81
2023/04/21 10:19:38;;;;;;;26.77;21.00;;;;;;;17.89;66.07;101075.91;4988164;28;20046;-82
2023/04/21 10:22:08;;;;;;;25.42;20.65;;;;;;;17.86;66.35;101077.03;4988372;28;20050;-82
2023/04/21 10:24:40;;;;;;;29.33;19.63;;;;;;;18.09;66.32;101074.47;4980097;28;20189;-82
2023/04/21 10:27:11;;;;;;;;;;;;;;;18.10;64.62;101075.28;4987877;28;20447;-81
2023/04/21 10:29:43;;;;;;;24.58;19.05;;;;;;;18.12;65.27;101074.09;4976856;28;19921;-81
2023/04/21 10:32:40;;;;;;;26.98;20.73;;;;;;;17.01;64.27;100864.75;4985768;28;20052;-82
2023/04/21 10:35:16;;;;;;;26.92;19.80;;;;;;;18.34;65.06;101031.34;4996421;28;20272;-82
2023/04/21 10:37:47;;;;;;;31.50;21.92;;;;;;;18.84;64.00;101065.00;4989893;28;20348;-80
2023/04/21 10:40:29;;;;;;;30.65;21.98;;;;;;;18.77;63.20;101029.91;4982493;28;20319;-80
2023/04/21 10:43:45;;;;;;;28.45;21.63;;;;;;;18.99;62.89;101062.38;4984604;28;20496;-80
2023/04/21 10:46:38;;;;;;;25.13;20.42;;;;;;;18.99;62.02;101057.81;4959185;28;20060;-80
2023/04/21 10:49:23;;;;;;;25.00;20.17;;;;;;;18.62;61.92;101001.25;5000598;28;20050;-81
2023/04/21 10:54:35;;;;;;;21.70;18.60;;;;;;;18.65;62.11;101014.34;4987551;28;20064;-82
2023/04/21 10:57:06;;;;;;;23.45;18.65;;;;;;;18.63;62.01;101008.31;4983592;28;20542;-82
2023/04/21 11:00:01;;;;;;;23.10;19.60;;;;;;;18.91;62.21;101059.72;4977133;28;20345;-82
2023/04/21 11:02:29;;;;;;;28.17;21.75;;;;;;;18.90;61.87;101032.00;4977032;28;20303;-82
2023/04/21 11:04:59;;;;;;;26.15;19.65;;;;;;;18.76;62.57;101047.06;4975358;28;20062;-81
2023/04/21 11:07:26;;;;;;;25.25;19.20;;;;;;;18.87;62.78;101061.13;4990295;28;20046;-83
2023/04/21 11:09:59;;;;;;;21.67;18.80;;;;;;;18.93;62.72;101055.88;4988389;28;20061;-82
2023/04/21 11:12:35;;;;;;;28.00;20.13;;;;;;;18.83;62.23;101047.19;4993163;28;20104;-81
2023/04/21 11:15:15;;;;;;;26.63;20.30;;;;;;;18.82;61.60;101048.19;5010609;28;20244;-82
2023/04/21 11:17:45;;;;;;;24.23;19.17;;;;;;;18.20;62.34;100955.00;4993258;28;20499;-81
2023/04/21 11:20:16;;;;;;;24.95;20.25;;;;;;;18.61;62.23;101013.84;4990902;28;20149;-81
2023/04/21 11:22:43;;;;;;;27.90;21.05;;;;;;;18.89;61.56;101056.41;4984890;28;20050;-81
2023/04/21 11:25:25;;;;;;;25.65;19.67;;;;;;;18.89;61.54;101059.91;4959940;28;20133;-80
2023/04/21 11:27:58;;;;;;;25.73;20.73;;;;;;;19.08;61.45;101055.03;4959822;28;20061;-79
2023/04/21 11:30:35;;;;;;;24.92;19.52;;;;;;;19.28;60.29;101039.25;4998641;28;20045;-80
2023/04/21 11:33:02;;;;;;;24.40;18.63;;;;;;;19.56;59.69;101055.59;5001129;28;20480;-83
2023/04/21 11:35:39;;;;;;;23.85;19.95;;;;;;;19.92;60.03;101044.13;5010600;28;20053;-80